createdAt,value
2018-07-06T00:00:05.238Z,18.14
2018-07-06T00:02:52.402Z,18.05
2018-07-06T00:05:39.087Z,18.15
2018-07-06T00:08:26.230Z,18.00
2018-07-06T00:11:12.828Z,17.89
2018-07-06T00:13:59.975Z,17.96
2018-07-06T00:16:46.815Z,17.82
2018-07-06T00:19:33.611Z,17.73
2018-07-06T00:22:20.017Z,17.91
2018-07-06T00:25:07.089Z,17.97
2018-07-06T00:27:54.007Z,17.92
2018-07-06T00:30:41.137Z,17.82
2018-07-06T00:33:27.726Z,17.69
2018-07-06T00:36:14.976Z,17.64
2018-07-06T00:39:01.977Z,17.61
2018-07-06T00:41:49.119Z,17.61
2018-07-06T00:44:35.753Z,17.63
2018-07-06T00:47:23.147Z,17.58
2018-07-06T00:50:09.602Z,17.73
2018-07-06T00:52:56.353Z,17.85
2018-07-06T00:55:43.151Z,17.66
2018-07-06T00:58:30.192Z,17.53
2018-07-06T01:01:16.882Z,17.42
2018-07-06T01:04:04.152Z,17.69
2018-07-06T01:06:50.806Z,17.75
2018-07-06T01:09:37.946Z,17.82
2018-07-06T01:12:29.975Z,17.75
2018-07-06T01:15:37.632Z,17.76
2018-07-06T01:18:24.623Z,17.82
2018-07-06T01:21:11.814Z,17.81
2018-07-06T01:23:58.617Z,17.85
2018-07-06T01:26:45.657Z,17.79
2018-07-06T01:29:32.543Z,17.59
2018-07-06T01:32:19.687Z,17.58
2018-07-06T01:35:06.419Z,17.63
2018-07-06T01:37:53.715Z,17.59
2018-07-06T01:40:40.669Z,17.72
2018-07-06T01:43:27.899Z,17.67
2018-07-06T01:46:14.949Z,17.37
2018-07-06T01:49:02.398Z,17.27
2018-07-06T01:51:48.731Z,17.23
2018-07-06T01:54:35.814Z,17.31
2018-07-06T01:57:22.591Z,17.31
2018-07-06T02:00:09.722Z,17.22
2018-07-06T02:02:56.543Z,17.18
2018-07-06T02:05:43.563Z,17.09
2018-07-06T02:08:30.375Z,17.17
2018-07-06T02:11:17.906Z,17.16
2018-07-06T02:14:04.781Z,17.01
2018-07-06T02:16:52.050Z,16.94
2018-07-06T02:19:38.543Z,17.09
2018-07-06T02:22:25.141Z,17.10
2018-07-06T02:25:12.165Z,17.20
2018-07-06T02:27:59.505Z,17.26
2018-07-06T02:30:46.197Z,17.09
2018-07-06T02:33:33.240Z,16.94
2018-07-06T02:36:20.123Z,17.10
2018-07-06T02:39:07.495Z,17.08
2018-07-06T02:41:54.151Z,17.12
2018-07-06T02:44:41.002Z,17.13
2018-07-06T02:47:28.081Z,17.06
2018-07-06T02:50:14.868Z,17.01
2018-07-06T02:53:01.655Z,17.11
2018-07-06T02:55:48.600Z,17.12
2018-07-06T02:58:35.435Z,16.79
2018-07-06T03:01:22.585Z,16.85
2018-07-06T03:04:09.268Z,16.88
2018-07-06T03:06:56.724Z,16.97
2018-07-06T03:09:43.512Z,16.92
2018-07-06T03:12:30.349Z,16.85
2018-07-06T03:15:17.268Z,16.99
2018-07-06T03:18:03.938Z,17.07
2018-07-06T03:20:50.750Z,17.11
2018-07-06T03:23:37.785Z,17.09
2018-07-06T03:26:24.676Z,17.13
2018-07-06T03:29:11.895Z,17.09
2018-07-06T03:31:58.622Z,17.14
2018-07-06T03:34:45.671Z,17.12
2018-07-06T03:37:32.395Z,17.14
2018-07-06T03:40:19.793Z,17.20
2018-07-06T03:43:06.317Z,17.15
2018-07-06T03:45:52.667Z,17.09
2018-07-06T03:48:39.200Z,17.19
2018-07-06T03:51:26.219Z,17.36
2018-07-06T03:54:13.157Z,17.30
2018-07-06T03:56:59.960Z,17.34
2018-07-06T03:59:46.786Z,17.51
2018-07-06T04:02:33.453Z,17.54
2018-07-06T04:05:20.151Z,17.67
2018-07-06T04:08:07.199Z,17.75
2018-07-06T04:10:53.870Z,17.85
2018-07-06T04:13:40.700Z,17.87
2018-07-06T04:16:27.045Z,18.01
2018-07-06T04:19:13.731Z,18.06
2018-07-06T04:22:00.591Z,18.17
2018-07-06T04:24:47.854Z,18.22
2018-07-06T04:27:34.642Z,18.43
2018-07-06T04:30:21.891Z,18.48
2018-07-06T04:33:08.677Z,18.58
2018-07-06T04:35:55.807Z,18.78
2018-07-06T04:38:42.610Z,18.89
2018-07-06T04:41:29.942Z,18.94
2018-07-06T04:44:16.490Z,19.16
2018-07-06T04:47:03.299Z,19.31
2018-07-06T04:49:50.060Z,19.37
2018-07-06T04:52:36.907Z,19.50
2018-07-06T04:55:23.683Z,19.48
2018-07-06T04:58:10.526Z,19.62
2018-07-06T05:00:57.418Z,19.87
2018-07-06T05:03:44.544Z,19.98
2018-07-06T05:06:31.326Z,20.10
2018-07-06T05:09:18.480Z,20.20
2018-07-06T05:12:05.377Z,20.20
2018-07-06T05:14:51.919Z,20.27
2018-07-06T05:17:38.485Z,20.43
2018-07-06T05:20:25.297Z,20.48
2018-07-06T05:23:11.985Z,20.61
2018-07-06T05:25:59.251Z,20.70
2018-07-06T05:28:45.981Z,20.75
2018-07-06T05:31:33.079Z,20.86
2018-07-06T05:34:19.761Z,21.13
2018-07-06T05:37:06.687Z,21.19
2018-07-06T05:39:53.899Z,21.42
2018-07-06T05:42:40.813Z,21.35
2018-07-06T05:45:27.855Z,21.47
2018-07-06T05:48:14.542Z,21.62
2018-07-06T05:51:01.674Z,21.78
2018-07-06T05:53:48.702Z,21.91
2018-07-06T05:56:35.839Z,22.08
2018-07-06T05:59:22.657Z,22.19
2018-07-06T06:02:09.822Z,22.23
2018-07-06T06:04:56.648Z,22.34
2018-07-06T06:07:31.299Z,22.40
2018-07-06T06:10:01.176Z,22.63
2018-07-06T06:12:31.479Z,22.79
2018-07-06T06:15:01.131Z,23.06
2018-07-06T06:17:31.331Z,23.03
2018-07-06T06:20:01.246Z,23.09
2018-07-06T06:22:31.007Z,23.08
2018-07-06T06:25:00.786Z,23.19
2018-07-06T06:27:30.796Z,23.16
2018-07-06T06:30:00.717Z,23.47
2018-07-06T06:32:30.937Z,23.49
2018-07-06T06:35:01.027Z,23.62
2018-07-06T06:37:31.301Z,23.69
2018-07-06T06:40:00.987Z,23.75
2018-07-06T06:42:30.815Z,23.73
2018-07-06T06:45:00.556Z,24.03
2018-07-06T06:47:30.870Z,24.02
2018-07-06T06:50:01.059Z,24.05
2018-07-06T06:52:30.703Z,24.11
2018-07-06T06:55:01.021Z,24.38
2018-07-06T06:57:30.905Z,24.31
2018-07-06T07:00:00.938Z,24.30
2018-07-06T07:02:31.095Z,24.53
2018-07-06T07:05:01.523Z,24.59
2018-07-06T07:07:31.982Z,24.48
2018-07-06T07:10:01.567Z,24.40
2018-07-06T07:12:31.682Z,24.06
2018-07-06T07:15:01.510Z,24.61
2018-07-06T07:17:31.360Z,24.80
2018-07-06T07:20:01.691Z,24.78
2018-07-06T07:22:31.488Z,24.99
2018-07-06T07:25:01.386Z,25.00
2018-07-06T07:27:31.516Z,25.19
2018-07-06T07:30:01.548Z,25.11
2018-07-06T07:32:31.359Z,25.41
2018-07-06T07:35:01.286Z,25.31
2018-07-06T07:37:31.052Z,25.39
2018-07-06T07:40:00.990Z,25.68
2018-07-06T07:42:30.794Z,25.80
2018-07-06T07:45:00.828Z,25.77
2018-07-06T07:47:30.947Z,25.43
2018-07-06T07:50:00.991Z,25.82
2018-07-06T07:52:41.595Z,25.81
2018-07-06T07:55:12.117Z,25.90
2018-07-06T07:57:41.948Z,25.85
2018-07-06T08:00:11.592Z,25.94
2018-07-06T08:02:41.745Z,26.06
2018-07-06T08:05:11.551Z,26.12
2018-07-06T08:07:41.736Z,26.15
2018-07-06T08:10:11.403Z,26.25
2018-07-06T08:12:41.123Z,26.27
2018-07-06T08:15:11.317Z,26.36
2018-07-06T08:17:40.915Z,26.33
2018-07-06T08:20:10.976Z,26.46
2018-07-06T08:22:40.936Z,26.47
2018-07-06T08:25:10.789Z,26.56
2018-07-06T08:27:40.474Z,26.53
2018-07-06T08:30:10.458Z,26.63
2018-07-06T08:32:40.272Z,26.77
2018-07-06T08:35:21.073Z,26.65
2018-07-06T08:38:05.610Z,26.88
2018-07-06T08:40:35.289Z,26.90
2018-07-06T08:43:05.998Z,26.96
2018-07-06T08:45:36.297Z,27.05
2018-07-06T08:48:06.359Z,27.34
2018-07-06T08:50:36.091Z,27.49
2018-07-06T08:53:06.451Z,27.42
2018-07-06T08:55:36.374Z,27.82
2018-07-06T08:58:06.525Z,27.91
2018-07-06T09:00:36.409Z,27.95
2018-07-06T09:03:06.663Z,27.98
2018-07-06T09:05:36.390Z,28.25
2018-07-06T09:08:06.003Z,28.23
2018-07-06T09:10:35.935Z,28.53
2018-07-06T09:13:06.075Z,28.36
2018-07-06T09:15:36.435Z,28.36
2018-07-06T09:18:06.175Z,28.32
2018-07-06T09:20:36.146Z,28.43
2018-07-06T09:23:06.287Z,28.42
2018-07-06T09:25:36.228Z,28.60
2018-07-06T09:28:05.975Z,28.68
2018-07-06T09:30:35.832Z,28.84
2018-07-06T09:33:06.237Z,29.12
2018-07-06T09:35:35.846Z,29.12
2018-07-06T09:38:05.513Z,29.41
2018-07-06T09:40:35.389Z,29.47
2018-07-06T09:43:05.292Z,29.73
2018-07-06T09:45:35.280Z,29.72
2018-07-06T09:48:05.012Z,29.78
2018-07-06T09:50:35.345Z,30.02
2018-07-06T09:53:05.354Z,30.23
2018-07-06T09:55:35.535Z,30.56
2018-07-06T09:58:05.463Z,30.59
2018-07-06T10:00:40.069Z,30.74
2018-07-06T10:03:09.991Z,30.89
2018-07-06T10:05:39.623Z,30.98
2018-07-06T10:08:09.199Z,31.08
2018-07-06T10:10:39.387Z,31.55
2018-07-06T10:13:09.343Z,31.80
2018-07-06T10:15:40.032Z,31.49
2018-07-06T10:18:10.359Z,31.84
2018-07-06T10:20:40.162Z,32.18
2018-07-06T10:23:09.895Z,32.01
2018-07-06T10:25:39.912Z,32.00
2018-07-06T10:29:21.591Z,31.96
2018-07-06T10:32:03.901Z,31.90
2018-07-06T10:34:33.777Z,32.53
2018-07-06T10:37:03.386Z,32.67
2018-07-06T10:39:32.976Z,32.10
2018-07-06T10:42:03.285Z,32.06
2018-07-06T10:44:33.217Z,31.88
2018-07-06T10:47:02.823Z,31.95
2018-07-06T10:49:33.209Z,31.46
2018-07-06T10:52:03.526Z,31.55
2018-07-06T10:54:33.658Z,31.24
2018-07-06T10:57:03.570Z,31.38
2018-07-06T10:59:33.703Z,31.39
2018-07-06T11:02:03.504Z,31.39
2018-07-06T11:04:33.198Z,31.47
2018-07-06T11:07:03.098Z,31.14
2018-07-06T11:09:32.658Z,31.45
2018-07-06T11:12:02.522Z,31.67
2018-07-06T11:14:32.680Z,31.27
2018-07-06T11:17:02.587Z,31.38
2018-07-06T11:19:33.024Z,31.55
2018-07-06T11:22:03.040Z,31.68
2018-07-06T11:24:32.887Z,31.53
2018-07-06T11:27:02.652Z,32.00
2018-07-06T11:29:32.584Z,31.89
2018-07-06T11:32:02.921Z,32.09
2018-07-06T11:34:32.502Z,32.44
2018-07-06T11:37:02.109Z,32.89
2018-07-06T11:39:32.146Z,33.73
2018-07-06T11:42:01.749Z,34.02
2018-07-06T11:44:32.100Z,34.31
2018-07-06T11:47:02.159Z,35.08
2018-07-06T11:49:32.450Z,35.20
2018-07-06T11:52:02.525Z,35.62
2018-07-06T11:54:32.635Z,35.42
2018-07-06T11:57:02.462Z,35.94
2018-07-06T11:59:32.364Z,36.22
2018-07-06T12:02:02.203Z,36.50
2018-07-06T12:04:31.839Z,36.99
2018-07-06T12:07:01.303Z,37.48
2018-07-06T12:09:31.264Z,38.03
2018-07-06T12:12:01.136Z,37.73
2018-07-06T12:14:31.009Z,38.28
2018-07-06T12:17:01.405Z,38.91
2018-07-06T12:19:31.154Z,38.98
2018-07-06T12:22:00.943Z,38.71
2018-07-06T12:24:30.746Z,37.38
2018-07-06T12:27:00.684Z,37.41
2018-07-06T12:29:30.555Z,37.27
2018-07-06T12:32:00.128Z,37.03
2018-07-06T12:34:30.124Z,36.50
2018-07-06T12:36:59.727Z,37.58
2018-07-06T12:39:29.439Z,37.78
2018-07-06T12:41:59.504Z,37.15
2018-07-06T12:44:29.121Z,36.15
2018-07-06T12:46:59.251Z,35.99
2018-07-06T12:49:28.984Z,35.86
2018-07-06T12:51:58.947Z,34.65
2018-07-06T12:54:29.002Z,34.44
2018-07-06T12:56:58.847Z,35.43
2018-07-06T12:59:29.151Z,35.50
2018-07-06T13:01:58.682Z,35.20
2018-07-06T13:04:28.227Z,34.86
2018-07-06T13:06:57.876Z,34.43
2018-07-06T13:09:27.663Z,34.03
2018-07-06T13:11:57.219Z,33.79
2018-07-06T13:14:27.298Z,33.64
2018-07-06T13:16:57.470Z,33.67
2018-07-06T13:19:27.445Z,32.65
2018-07-06T13:21:57.961Z,32.36
2018-07-06T13:24:27.899Z,32.48
2018-07-06T13:26:58.317Z,32.63
2018-07-06T13:29:28.422Z,32.68
2018-07-06T13:31:58.115Z,33.62
2018-07-06T13:34:27.739Z,33.77
2018-07-06T13:36:57.288Z,34.17
2018-07-06T13:39:27.183Z,34.16
2018-07-06T13:41:57.567Z,33.65
2018-07-06T13:44:27.332Z,34.19
2018-07-06T13:46:57.119Z,33.97
2018-07-06T13:49:26.975Z,34.24
2018-07-06T13:51:56.745Z,33.97
2018-07-06T13:54:26.781Z,34.28
2018-07-06T13:56:56.662Z,33.84
2018-07-06T13:59:27.133Z,33.87
2018-07-06T14:01:56.808Z,33.91
2018-07-06T14:04:26.395Z,33.77
2018-07-06T14:06:57.496Z,33.47
2018-07-06T14:09:27.382Z,33.31
2018-07-06T14:11:57.555Z,32.57
2018-07-06T14:14:27.916Z,32.53
2018-07-06T14:16:57.871Z,32.11
2018-07-06T14:19:28.529Z,30.95
2018-07-06T14:21:59.431Z,30.19
2018-07-06T14:24:29.228Z,29.97
2018-07-06T14:26:59.447Z,30.12
2018-07-06T14:29:29.182Z,30.28
2018-07-06T14:31:58.870Z,30.45
2018-07-06T14:34:29.511Z,30.02
2018-07-06T14:36:59.418Z,29.63
2018-07-06T14:39:29.528Z,29.15
2018-07-06T14:41:59.776Z,28.84
2018-07-06T14:44:29.665Z,28.63
2018-07-06T14:46:59.625Z,27.54
2018-07-06T14:49:29.718Z,27.34
2018-07-06T14:52:00.012Z,27.65
2018-07-06T14:54:30.138Z,28.07
2018-07-06T14:57:00.309Z,28.36
2018-07-06T14:59:29.941Z,28.66
2018-07-06T15:01:59.467Z,29.14
2018-07-06T15:04:29.743Z,29.91
2018-07-06T15:06:59.615Z,30.50
2018-07-06T15:09:29.760Z,30.90
2018-07-06T15:11:59.506Z,31.59
2018-07-06T15:14:29.429Z,32.04
2018-07-06T15:16:59.519Z,32.11
2018-07-06T15:19:29.312Z,32.96
2018-07-06T15:21:59.440Z,33.25
2018-07-06T15:24:29.228Z,33.32
2018-07-06T15:26:59.622Z,33.29
2018-07-06T15:29:29.212Z,33.33
2018-07-06T15:31:58.767Z,33.78
2018-07-06T15:34:28.656Z,33.22
2018-07-06T15:36:58.595Z,33.80
2018-07-06T15:39:28.934Z,33.48
2018-07-06T15:41:59.235Z,33.19
2018-07-06T15:44:29.268Z,33.11
2018-07-06T15:46:59.259Z,32.08
2018-07-06T15:49:29.110Z,32.85
2018-07-06T15:51:58.696Z,32.76
2018-07-06T15:54:28.540Z,32.66
2018-07-06T15:56:58.588Z,32.67
2018-07-06T15:59:28.216Z,32.46
2018-07-06T16:01:57.887Z,32.37
2018-07-06T16:04:27.897Z,32.34
2018-07-06T16:06:57.811Z,32.04
2018-07-06T16:09:27.684Z,32.04
2018-07-06T16:11:57.335Z,31.98
2018-07-06T16:14:27.256Z,31.92
2018-07-06T16:16:57.597Z,31.83
2018-07-06T16:19:27.296Z,31.55
2018-07-06T16:21:57.086Z,31.39
2018-07-06T16:24:26.859Z,31.27
2018-07-06T16:26:57.024Z,31.36
2018-07-06T16:29:26.858Z,31.32
2018-07-06T16:31:56.940Z,31.22
2018-07-06T16:34:26.770Z,30.93
2018-07-06T16:36:56.460Z,30.99
2018-07-06T16:39:26.083Z,30.78
2018-07-06T16:41:55.682Z,30.69
2018-07-06T16:44:25.754Z,30.51
2018-07-06T16:46:55.536Z,30.09
2018-07-06T16:49:25.152Z,29.95
2018-07-06T16:51:55.082Z,29.68
2018-07-06T16:54:25.003Z,29.52
2018-07-06T16:56:54.940Z,29.34
2018-07-06T16:59:24.750Z,29.17
2018-07-06T17:01:54.426Z,29.17
2018-07-06T17:04:24.237Z,29.00
2018-07-06T17:06:53.783Z,28.85
2018-07-06T17:09:23.367Z,28.74
2018-07-06T17:11:53.088Z,28.37
2018-07-06T17:14:22.921Z,28.35
2018-07-06T17:16:52.491Z,28.11
2018-07-06T17:19:22.263Z,28.05
2018-07-06T17:21:51.926Z,27.72
2018-07-06T17:24:21.596Z,27.72
2018-07-06T17:26:51.738Z,27.45
2018-07-06T17:29:21.524Z,27.28
2018-07-06T17:31:51.244Z,27.58
2018-07-06T17:34:21.186Z,27.60
2018-07-06T17:36:50.854Z,27.21
2018-07-06T17:39:20.513Z,27.00
2018-07-06T17:41:50.195Z,26.72
2018-07-06T17:44:20.553Z,26.64
2018-07-06T17:46:50.431Z,26.50
2018-07-06T17:49:20.252Z,26.42
2018-07-06T17:51:50.719Z,26.26
2018-07-06T17:54:20.491Z,26.12
2018-07-06T17:56:50.748Z,26.01
2018-07-06T17:59:20.395Z,25.91
2018-07-06T18:01:50.084Z,25.75
2018-07-06T18:04:20.079Z,25.81
2018-07-06T18:06:49.599Z,25.71
2018-07-06T18:09:19.159Z,25.33
2018-07-06T18:11:48.747Z,25.18
2018-07-06T18:14:18.673Z,25.22
2018-07-06T18:16:49.961Z,25.17
2018-07-06T18:19:19.863Z,25.08
2018-07-06T18:21:50.551Z,25.01
2018-07-06T18:24:20.411Z,24.91
2018-07-06T18:26:50.833Z,24.77
2018-07-06T18:29:20.654Z,24.71
2018-07-06T18:31:50.921Z,24.64
2018-07-06T18:34:20.902Z,24.57
2018-07-06T18:36:50.961Z,24.47
2018-07-06T18:39:20.898Z,24.36
2018-07-06T18:41:50.461Z,24.25
2018-07-06T18:44:20.391Z,24.27
2018-07-06T18:46:50.025Z,24.30
2018-07-06T18:49:20.410Z,24.33
2018-07-06T18:51:50.041Z,24.25
2018-07-06T18:54:20.120Z,24.18
2018-07-06T18:56:50.015Z,24.31
2018-07-06T18:59:20.146Z,24.33
2018-07-06T19:01:49.735Z,24.24
2018-07-06T19:04:19.683Z,23.83
2018-07-06T19:06:49.593Z,23.71
2018-07-06T19:09:19.990Z,23.16
2018-07-06T19:11:49.799Z,22.84
2018-07-06T19:14:20.000Z,22.87
2018-07-06T19:16:50.075Z,22.99
2018-07-06T19:19:19.830Z,23.09
2018-07-06T19:21:49.840Z,23.11
2018-07-06T19:24:19.773Z,22.85
2018-07-06T19:26:49.738Z,22.88
2018-07-06T19:29:19.644Z,22.63
2018-07-06T19:31:49.419Z,22.49
2018-07-06T19:34:19.621Z,22.48
2018-07-06T19:36:49.195Z,22.28
2018-07-06T19:39:18.903Z,22.09
2018-07-06T19:41:49.351Z,21.85
2018-07-06T19:44:19.347Z,21.81
2018-07-06T19:46:49.322Z,21.72
2018-07-06T19:49:19.403Z,21.69
2018-07-06T19:51:49.517Z,21.63
2018-07-06T19:54:19.652Z,21.75
2018-07-06T19:56:50.604Z,21.73
2018-07-06T19:59:20.847Z,21.64
2018-07-06T20:01:50.739Z,21.71
2018-07-06T20:04:20.355Z,21.50
2018-07-06T20:06:50.168Z,21.46
2018-07-06T20:09:19.663Z,21.51
2018-07-06T20:11:49.449Z,21.62
2018-07-06T20:14:19.211Z,21.73
2018-07-06T20:16:49.079Z,21.74
2018-07-06T20:19:19.368Z,21.73
2018-07-06T20:21:48.956Z,21.46
2018-07-06T20:24:18.720Z,21.42
2018-07-06T20:26:48.867Z,21.43
2018-07-06T20:29:18.777Z,21.38
2018-07-06T20:31:49.121Z,21.49
2018-07-06T20:34:18.715Z,21.33
2018-07-06T20:36:48.297Z,21.38
2018-07-06T20:39:18.215Z,21.38
2018-07-06T20:41:48.034Z,21.41
2018-07-06T20:44:17.639Z,21.53
2018-07-06T20:46:47.884Z,21.63
2018-07-06T20:49:17.922Z,21.81
2018-07-06T20:51:48.098Z,21.77
2018-07-06T20:54:18.431Z,21.72
2018-07-06T20:56:48.454Z,21.64
2018-07-06T20:59:18.669Z,21.74
2018-07-06T21:01:48.383Z,21.88
2018-07-06T21:04:18.330Z,21.74
2018-07-06T21:06:48.118Z,21.76
2018-07-06T21:09:17.755Z,21.57
2018-07-06T21:11:48.020Z,21.79
2018-07-06T21:14:17.649Z,21.77
2018-07-06T21:16:47.459Z,21.88
2018-07-06T21:19:17.458Z,21.70
2018-07-06T21:21:47.186Z,21.81
2018-07-06T21:24:17.568Z,22.04
2018-07-06T21:26:47.231Z,22.01
2018-07-06T21:29:17.043Z,22.07
2018-07-06T21:31:47.092Z,21.93
2018-07-06T21:34:17.126Z,21.81
2018-07-06T21:36:46.689Z,21.69
2018-07-06T21:39:16.566Z,21.76
2018-07-06T21:41:46.212Z,22.02
2018-07-06T21:44:16.226Z,22.03
2018-07-06T21:46:46.173Z,22.20
2018-07-06T21:49:16.346Z,22.25
2018-07-06T21:51:46.894Z,22.33
2018-07-06T21:54:16.724Z,22.55
2018-07-06T21:56:46.841Z,22.42
2018-07-06T21:59:16.651Z,22.45
2018-07-06T22:01:47.186Z,22.44
2018-07-06T22:04:16.931Z,22.42
2018-07-06T22:06:46.607Z,22.54
2018-07-06T22:09:16.925Z,22.54
2018-07-06T22:11:47.383Z,22.45
2018-07-06T22:14:17.622Z,22.51
2018-07-06T22:16:48.715Z,22.37
2018-07-06T22:19:18.956Z,22.26
2018-07-06T22:21:49.205Z,22.58
2018-07-06T22:24:19.291Z,22.36
2018-07-06T22:26:48.935Z,22.29
2018-07-06T22:29:19.026Z,22.38
2018-07-06T22:31:49.618Z,22.43
2018-07-06T22:34:19.634Z,22.43
2018-07-06T22:36:49.273Z,22.29
2018-07-06T22:39:19.136Z,22.11
2018-07-06T22:41:50.017Z,22.17
2018-07-06T22:44:19.974Z,22.05
2018-07-06T22:46:49.752Z,22.05
2018-07-06T22:49:20.051Z,21.81
2018-07-06T22:51:49.684Z,21.63
2018-07-06T22:54:19.337Z,21.62
2018-07-06T22:56:49.298Z,21.44
2018-07-06T22:59:19.107Z,21.57
2018-07-06T23:01:49.956Z,21.60
2018-07-06T23:04:19.530Z,21.66
2018-07-06T23:06:49.110Z,21.44
2018-07-06T23:09:18.739Z,21.37
2018-07-06T23:11:48.503Z,21.49
2018-07-06T23:14:18.938Z,21.53
2018-07-06T23:16:49.552Z,21.51
2018-07-06T23:19:19.889Z,21.50
2018-07-06T23:21:50.004Z,21.45
2018-07-06T23:24:20.329Z,21.41
2018-07-06T23:26:50.346Z,21.37
2018-07-06T23:29:20.244Z,21.48
2018-07-06T23:31:49.935Z,21.31
2018-07-06T23:34:19.570Z,21.15
2018-07-06T23:36:49.224Z,21.03
2018-07-06T23:39:19.346Z,20.81
2018-07-06T23:41:49.484Z,20.83
2018-07-06T23:44:19.698Z,20.74
2018-07-06T23:46:50.094Z,20.60
2018-07-06T23:49:20.336Z,20.70
2018-07-06T23:51:50.235Z,20.33
2018-07-06T23:54:20.467Z,20.27
2018-07-06T23:56:50.259Z,19.99
2018-07-06T23:59:20.630Z,19.95
